createdAt,value
2022-09-04T00:01:45.094Z,25.32
2022-09-04T00:08:57.999Z,25.17
2022-09-04T00:15:51.308Z,25.05
2022-09-04T00:22:44.745Z,25.07
2022-09-04T00:29:42.271Z,25.08
2022-09-04T00:36:33.043Z,24.77
2022-09-04T00:44:09.067Z,24.97
2022-09-04T00:51:20.674Z,24.88
2022-09-04T00:58:36.755Z,24.79
2022-09-04T01:05:46.636Z,24.75
2022-09-04T01:12:41.697Z,24.72
2022-09-04T01:19:53.641Z,24.67
2022-09-04T01:26:50.952Z,24.62
2022-09-04T01:33:44.257Z,24.57
2022-09-04T01:40:43.817Z,24.34
2022-09-04T01:47:42.658Z,24.42
2022-09-04T01:54:46.542Z,24.07
2022-09-04T02:01:42.262Z,24.27
2022-09-04T02:08:47.370Z,24.22
2022-09-04T02:15:43.180Z,24.13
2022-09-04T02:22:42.423Z,24.03
2022-09-04T02:29:42.808Z,23.96
2022-09-04T02:36:37.797Z,23.99
2022-09-04T02:43:52.121Z,23.96
2022-09-04T03:04:37.019Z,23.69
2022-09-04T03:11:33.241Z,23.62
2022-09-04T03:18:25.943Z,23.76
2022-09-04T03:25:41.204Z,23.47
2022-09-04T03:32:35.020Z,23.39
2022-09-04T03:39:29.012Z,23.52
2022-09-04T03:46:34.739Z,23.48
2022-09-04T03:53:32.377Z,23.50
2022-09-04T04:00:20.862Z,23.48
2022-09-04T04:07:27.017Z,23.29
2022-09-04T04:14:38.396Z,23.29
2022-09-04T04:21:37.313Z,23.24
2022-09-04T04:28:59.709Z,23.24
2022-09-04T04:35:55.537Z,22.73
2022-09-04T04:42:53.424Z,23.28
2022-09-04T04:50:07.191Z,23.34
2022-09-04T04:57:02.638Z,22.22
2022-09-04T05:04:05.725Z,23.31
2022-09-04T05:11:02.338Z,23.36
2022-09-04T05:17:56.530Z,23.39
2022-09-04T05:24:57.696Z,23.42
2022-09-04T05:31:56.456Z,23.46
2022-09-04T05:38:54.237Z,23.52
2022-09-04T05:46:00.050Z,23.28
2022-09-04T05:53:00.708Z,23.79
2022-09-04T06:00:18.712Z,23.59
2022-09-04T06:07:15.182Z,23.61
2022-09-04T06:14:32.123Z,23.58
2022-09-04T06:22:03.029Z,23.63
2022-09-04T06:29:22.764Z,23.70
2022-09-04T06:36:49.208Z,23.74
2022-09-04T06:43:47.112Z,23.79
2022-09-04T06:50:51.425Z,23.86
2022-09-04T06:57:55.428Z,23.96
2022-09-04T07:04:54.015Z,24.01
2022-09-04T07:12:06.972Z,24.10
2022-09-04T07:19:15.822Z,24.25
2022-09-04T07:26:11.077Z,24.31
2022-09-04T07:33:04.536Z,24.38
2022-09-04T07:40:00.802Z,23.80
2022-09-04T07:46:57.677Z,24.52
2022-09-04T07:54:02.493Z,24.78
2022-09-04T08:01:02.793Z,24.59
2022-09-04T08:08:12.055Z,24.72
2022-09-04T08:15:16.173Z,24.80
2022-09-04T08:22:02.153Z,24.65
2022-09-04T08:29:12.074Z,25.28
2022-09-04T08:36:06.169Z,24.95
2022-09-04T08:43:35.555Z,25.47
2022-09-04T08:50:49.725Z,25.60
2022-09-04T08:58:19.804Z,25.76
2022-09-04T09:06:06.843Z,25.98
2022-09-04T09:13:32.581Z,26.03
2022-09-04T09:20:48.112Z,26.20
2022-09-04T09:28:27.203Z,26.25
2022-09-04T09:36:06.717Z,26.31
2022-09-04T09:43:43.512Z,26.42
2022-09-04T09:51:40.889Z,26.52
2022-09-04T09:59:17.006Z,26.70
2022-09-04T10:06:49.271Z,26.98
2022-09-04T10:14:11.666Z,27.12
2022-09-04T10:21:24.326Z,27.40
2022-09-04T10:28:47.565Z,27.69
2022-09-04T10:35:45.051Z,27.84
2022-09-04T10:42:48.140Z,28.16
2022-09-04T10:49:56.196Z,28.30
2022-09-04T10:56:53.029Z,28.62
2022-09-04T11:04:11.639Z,28.84
2022-09-04T11:11:18.631Z,29.04
2022-09-04T11:18:45.558Z,29.13
2022-09-04T11:26:14.161Z,29.23
2022-09-04T11:33:49.201Z,29.35
2022-09-04T11:41:24.690Z,29.68
2022-09-04T11:48:56.014Z,29.76
2022-09-04T11:56:09.717Z,29.87
2022-09-04T12:03:36.088Z,29.98
2022-09-04T12:10:38.332Z,30.07
2022-09-04T12:18:16.411Z,30.22
2022-09-04T12:25:47.137Z,30.38
2022-09-04T12:33:18.637Z,30.51
2022-09-04T12:40:34.881Z,30.70
2022-09-04T12:47:40.960Z,30.78
2022-09-04T12:54:39.252Z,30.86
2022-09-04T13:01:41.310Z,30.91
2022-09-04T13:08:47.384Z,30.98
2022-09-04T13:15:45.036Z,31.09
2022-09-04T13:22:42.672Z,31.13
2022-09-04T13:29:44.593Z,31.29
2022-09-04T13:36:44.641Z,31.04
2022-09-04T13:44:08.080Z,31.48
2022-09-04T13:51:01.841Z,31.60
2022-09-04T13:57:57.603Z,31.59
2022-09-04T14:04:50.850Z,31.81
2022-09-04T14:12:03.881Z,31.86
2022-09-04T14:19:10.994Z,32.09
2022-09-04T14:26:12.464Z,32.20
2022-09-04T14:33:22.057Z,32.36
2022-09-04T14:40:17.773Z,32.51
2022-09-04T14:47:17.267Z,32.52
2022-09-04T14:54:06.695Z,32.45
2022-09-04T15:01:07.017Z,32.54
2022-09-04T15:08:00.577Z,32.52
2022-09-04T15:14:52.651Z,32.48
2022-09-04T15:21:48.565Z,32.50
2022-09-04T15:28:43.686Z,32.63
2022-09-04T15:35:34.142Z,32.55
2022-09-04T15:42:39.493Z,32.49
2022-09-04T15:49:42.094Z,32.80
2022-09-04T15:56:42.012Z,32.77
2022-09-04T16:03:36.652Z,32.80
2022-09-04T16:10:27.288Z,32.73
2022-09-04T16:17:25.354Z,32.74
2022-09-04T16:24:17.865Z,32.73
2022-09-04T16:31:06.366Z,32.72
2022-09-04T16:38:01.964Z,32.68
2022-09-04T16:44:54.104Z,32.63
2022-09-04T16:51:44.534Z,32.58
2022-09-04T16:58:46.174Z,32.50
2022-09-04T17:05:40.067Z,32.46
2022-09-04T17:12:47.229Z,32.03
2022-09-04T17:19:35.700Z,32.31
2022-09-04T17:29:13.162Z,32.27
2022-09-04T17:40:32.086Z,32.24
2022-09-04T17:41:36.072Z,31.76
2022-09-04T17:48:26.528Z,32.06
2022-09-04T17:55:16.691Z,31.74
2022-09-04T18:02:17.309Z,31.87
2022-09-04T18:09:11.032Z,31.76
2022-09-04T18:16:07.720Z,31.19
2022-09-04T18:23:50.987Z,31.45
2022-09-04T18:37:09.139Z,31.40
2022-09-04T18:37:58.519Z,31.20
2022-09-04T18:50:39.517Z,31.24
2022-09-04T18:52:03.858Z,31.24
2022-09-04T18:59:00.760Z,31.11
2022-09-04T19:05:51.868Z,30.99
2022-09-04T19:13:04.328Z,30.80
2022-09-04T19:19:57.092Z,30.68
2022-09-04T19:26:54.321Z,30.56
2022-09-04T19:33:46.288Z,30.46
2022-09-04T19:46:09.033Z,30.33
2022-09-04T19:48:03.896Z,30.15
2022-09-04T19:54:55.111Z,30.00
2022-09-04T20:02:03.715Z,29.78
2022-09-04T20:08:57.642Z,29.61
2022-09-04T20:15:53.696Z,29.45
2022-09-04T20:22:46.263Z,29.33
2022-09-04T20:29:40.483Z,29.00
2022-09-04T20:36:35.412Z,29.07
2022-09-04T20:43:31.784Z,28.92
2022-09-04T20:52:49.775Z,28.48
2022-09-04T21:03:12.594Z,28.63
2022-09-04T21:06:12.336Z,28.47
2022-09-04T21:13:14.327Z,28.22
2022-09-04T21:20:59.902Z,28.00
2022-09-04T21:28:27.568Z,27.88
2022-09-04T21:35:24.035Z,27.72
2022-09-04T21:42:44.548Z,27.65
2022-09-04T21:50:23.384Z,27.60
2022-09-04T22:02:28.427Z,27.53
2022-09-04T22:05:12.007Z,27.44
2022-09-04T22:13:37.850Z,27.32
2022-09-04T22:19:44.132Z,27.24
2022-09-04T22:26:54.378Z,27.10
2022-09-04T22:34:17.705Z,26.97
2022-09-04T22:41:41.194Z,26.85
2022-09-04T22:49:23.544Z,26.84
2022-09-04T22:56:24.736Z,26.85
2022-09-04T23:03:48.235Z,26.88
2022-09-04T23:13:54.866Z,26.87
2022-09-04T23:20:00.632Z,26.80
2022-09-04T23:26:41.908Z,26.74
2022-09-04T23:33:50.047Z,26.74
2022-09-04T23:40:48.495Z,26.64
2022-09-04T23:48:00.953Z,26.39
2022-09-04T23:55:25.392Z,26.49
